sensor_id;sensor_type;location;lat;lon;timestamp;temperature;humidity
37285;DHT22;23172;53.550;9.964;2022-10-29T00:03:31;20.60;90.50
37285;DHT22;23172;53.550;9.964;2022-10-29T00:08:36;20.60;90.50
37285;DHT22;23172;53.550;9.964;2022-10-29T00:13:38;20.60;90.30
37285;DHT22;23172;53.550;9.964;2022-10-29T00:18:41;20.50;90.20
37285;DHT22;23172;53.550;9.964;2022-10-29T00:23:44;20.40;90.20
37285;DHT22;23172;53.550;9.964;2022-10-29T00:28:46;20.50;90.20
37285;DHT22;23172;53.550;9.964;2022-10-29T00:33:49;20.40;90.10
37285;DHT22;23172;53.550;9.964;2022-10-29T00:38:52;20.40;90.20
37285;DHT22;23172;53.550;9.964;2022-10-29T00:44:21;20.30;90.30
37285;DHT22;23172;53.550;9.964;2022-10-29T00:49:25;20.40;90.30
37285;DHT22;23172;53.550;9.964;2022-10-29T00:54:29;20.30;90.40
37285;DHT22;23172;53.550;9.964;2022-10-29T00:59:32;20.20;90.50
37285;DHT22;23172;53.550;9.964;2022-10-29T01:04:34;20.10;90.60
37285;DHT22;23172;53.550;9.964;2022-10-29T01:09:38;20.10;90.60
37285;DHT22;23172;53.550;9.964;2022-10-29T01:14:48;19.30;91.60
37285;DHT22;23172;53.550;9.964;2022-10-29T01:20:25;19.70;91.10
37285;DHT22;23172;53.550;9.964;2022-10-29T01:25:56;19.90;90.80
37285;DHT22;23172;53.550;9.964;2022-10-29T01:31:12;19.90;90.60
37285;DHT22;23172;53.550;9.964;2022-10-29T01:36:21;19.90;90.60
37285;DHT22;23172;53.550;9.964;2022-10-29T01:41:29;19.90;90.70
37285;DHT22;23172;53.550;9.964;2022-10-29T01:46:38;19.90;90.70
37285;DHT22;23172;53.550;9.964;2022-10-29T01:51:42;19.80;90.80
37285;DHT22;23172;53.550;9.964;2022-10-29T01:56:51;19.70;91.20
37285;DHT22;23172;53.550;9.964;2022-10-29T02:01:57;18.90;92.20
37285;DHT22;23172;53.550;9.964;2022-10-29T02:07:01;18.40;93.00
37285;DHT22;23172;53.550;9.964;2022-10-29T02:12:09;18.10;93.50
37285;DHT22;23172;53.550;9.964;2022-10-29T02:17:15;17.80;93.90
37285;DHT22;23172;53.550;9.964;2022-10-29T02:22:17;17.60;94.40
37285;DHT22;23172;53.550;9.964;2022-10-29T02:27:18;17.50;94.70
37285;DHT22;23172;53.550;9.964;2022-10-29T02:32:21;17.30;94.90
37285;DHT22;23172;53.550;9.964;2022-10-29T02:37:23;17.30;95.10
37285;DHT22;23172;53.550;9.964;2022-10-29T02:42:25;17.20;95.20
37285;DHT22;23172;53.550;9.964;2022-10-29T02:47:28;17.20;95.50
37285;DHT22;23172;53.550;9.964;2022-10-29T02:52:29;17.10;95.70
37285;DHT22;23172;53.550;9.964;2022-10-29T02:57:31;17.00;95.90
37285;DHT22;23172;53.550;9.964;2022-10-29T03:02:34;17.00;96.10
37285;DHT22;23172;53.550;9.964;2022-10-29T03:07:36;17.00;96.00
37285;DHT22;23172;53.550;9.964;2022-10-29T03:12:37;17.00;96.10
37285;DHT22;23172;53.550;9.964;2022-10-29T03:17:40;16.90;96.30
37285;DHT22;23172;53.550;9.964;2022-10-29T03:22:42;16.90;96.40
37285;DHT22;23172;53.550;9.964;2022-10-29T03:27:44;16.90;96.50
37285;DHT22;23172;53.550;9.964;2022-10-29T03:32:47;16.90;96.50
37285;DHT22;23172;53.550;9.964;2022-10-29T03:37:49;16.90;96.60
37285;DHT22;23172;53.550;9.964;2022-10-29T03:42:51;16.90;96.70
37285;DHT22;23172;53.550;9.964;2022-10-29T03:47:54;16.90;96.90
37285;DHT22;23172;53.550;9.964;2022-10-29T03:52:56;16.90;96.80
37285;DHT22;23172;53.550;9.964;2022-10-29T03:57:57;16.90;97.40
37285;DHT22;23172;53.550;9.964;2022-10-29T04:03:00;16.90;97.00
37285;DHT22;23172;53.550;9.964;2022-10-29T04:08:02;16.90;97.10
37285;DHT22;23172;53.550;9.964;2022-10-29T04:13:04;16.90;97.10
37285;DHT22;23172;53.550;9.964;2022-10-29T04:18:07;16.90;97.10
37285;DHT22;23172;53.550;9.964;2022-10-29T04:23:08;16.80;97.20
37285;DHT22;23172;53.550;9.964;2022-10-29T04:28:10;16.80;97.40
37285;DHT22;23172;53.550;9.964;2022-10-29T04:33:13;16.80;97.50
37285;DHT22;23172;53.550;9.964;2022-10-29T04:38:15;16.70;97.50
37285;DHT22;23172;53.550;9.964;2022-10-29T04:43:16;16.70;97.60
37285;DHT22;23172;53.550;9.964;2022-10-29T04:48:19;16.70;97.70
37285;DHT22;23172;53.550;9.964;2022-10-29T04:53:21;16.60;97.80
37285;DHT22;23172;53.550;9.964;2022-10-29T04:58:23;16.60;97.80
37285;DHT22;23172;53.550;9.964;2022-10-29T05:03:26;16.70;97.60
37285;DHT22;23172;53.550;9.964;2022-10-29T05:08:28;17.50;97.20
37285;DHT22;23172;53.550;9.964;2022-10-29T05:13:29;17.10;97.60
37285;DHT22;23172;53.550;9.964;2022-10-29T05:18:32;17.00;98.00
37285;DHT22;23172;53.550;9.964;2022-10-29T05:23:36;16.90;98.20
37285;DHT22;23172;53.550;9.964;2022-10-29T05:28:38;16.80;98.30
37285;DHT22;23172;53.550;9.964;2022-10-29T05:33:41;16.80;98.20
37285;DHT22;23172;53.550;9.964;2022-10-29T05:38:43;17.60;97.30
37285;DHT22;23172;53.550;9.964;2022-10-29T05:43:47;18.00;96.50
37285;DHT22;23172;53.550;9.964;2022-10-29T05:48:50;18.30;95.70
37285;DHT22;23172;53.550;9.964;2022-10-29T05:53:52;18.40;95.30
37285;DHT22;23172;53.550;9.964;2022-10-29T05:58:54;18.50;95.00
37285;DHT22;23172;53.550;9.964;2022-10-29T06:03:59;18.50;94.80
37285;DHT22;23172;53.550;9.964;2022-10-29T06:09:01;18.50;94.60
37285;DHT22;23172;53.550;9.964;2022-10-29T06:14:03;18.60;94.40
37285;DHT22;23172;53.550;9.964;2022-10-29T06:19:06;18.60;94.10
37285;DHT22;23172;53.550;9.964;2022-10-29T06:24:08;18.70;93.90
37285;DHT22;23172;53.550;9.964;2022-10-29T06:29:10;18.70;93.60
37285;DHT22;23172;53.550;9.964;2022-10-29T06:34:13;18.60;93.50
37285;DHT22;23172;53.550;9.964;2022-10-29T06:39:16;18.50;93.60
37285;DHT22;23172;53.550;9.964;2022-10-29T06:44:17;18.50;93.70
37285;DHT22;23172;53.550;9.964;2022-10-29T06:49:21;18.50;93.90
37285;DHT22;23172;53.550;9.964;2022-10-29T06:54:23;18.50;93.50
37285;DHT22;23172;53.550;9.964;2022-10-29T06:59:25;18.50;93.40
37285;DHT22;23172;53.550;9.964;2022-10-29T07:04:28;18.40;93.40
37285;DHT22;23172;53.550;9.964;2022-10-29T07:09:29;18.50;93.30
37285;DHT22;23172;53.550;9.964;2022-10-29T07:14:31;18.50;93.20
37285;DHT22;23172;53.550;9.964;2022-10-29T07:19:34;18.50;93.20
37285;DHT22;23172;53.550;9.964;2022-10-29T07:24:36;18.50;93.20
37285;DHT22;23172;53.550;9.964;2022-10-29T07:29:38;18.50;93.20
37285;DHT22;23172;53.550;9.964;2022-10-29T07:34:41;18.50;93.10
37285;DHT22;23172;53.550;9.964;2022-10-29T07:39:42;18.60;93.20
37285;DHT22;23172;53.550;9.964;2022-10-29T07:44:44;18.60;93.10
37285;DHT22;23172;53.550;9.964;2022-10-29T07:49:47;18.50;93.10
37285;DHT22;23172;53.550;9.964;2022-10-29T07:54:49;18.60;93.10
37285;DHT22;23172;53.550;9.964;2022-10-29T07:59:51;18.70;92.90
37285;DHT22;23172;53.550;9.964;2022-10-29T08:04:54;18.80;92.60
37285;DHT22;23172;53.550;9.964;2022-10-29T08:09:55;18.70;92.80
37285;DHT22;23172;53.550;9.964;2022-10-29T08:14:57;18.80;92.60
37285;DHT22;23172;53.550;9.964;2022-10-29T08:20:00;18.80;92.50
37285;DHT22;23172;53.550;9.964;2022-10-29T08:25:03;18.80;92.50
37285;DHT22;23172;53.550;9.964;2022-10-29T08:30:06;18.90;92.50
37285;DHT22;23172;53.550;9.964;2022-10-29T08:35:09;18.90;92.30
37285;DHT22;23172;53.550;9.964;2022-10-29T08:40:14;19.00;92.10
37285;DHT22;23172;53.550;9.964;2022-10-29T08:45:23;19.00;92.10
37285;DHT22;23172;53.550;9.964;2022-10-29T08:50:29;19.10;92.00
37285;DHT22;23172;53.550;9.964;2022-10-29T08:55:35;19.10;91.80
37285;DHT22;23172;53.550;9.964;2022-10-29T09:00:40;19.10;92.10
37285;DHT22;23172;53.550;9.964;2022-10-29T09:05:49;19.20;91.70
37285;DHT22;23172;53.550;9.964;2022-10-29T09:10:54;19.20;91.80
37285;DHT22;23172;53.550;9.964;2022-10-29T09:16:13;19.20;91.90
37285;DHT22;23172;53.550;9.964;2022-10-29T09:21:27;19.30;91.90
37285;DHT22;23172;53.550;9.964;2022-10-29T09:26:31;19.40;91.70
37285;DHT22;23172;53.550;9.964;2022-10-29T09:31:39;19.50;91.60
37285;DHT22;23172;53.550;9.964;2022-10-29T09:36:43;19.40;91.70
37285;DHT22;23172;53.550;9.964;2022-10-29T09:41:47;19.50;91.60
37285;DHT22;23172;53.550;9.964;2022-10-29T09:46:59;19.80;91.30
37285;DHT22;23172;53.550;9.964;2022-10-29T09:52:11;20.00;91.00
37285;DHT22;23172;53.550;9.964;2022-10-29T09:57:18;20.20;90.50
37285;DHT22;23172;53.550;9.964;2022-10-29T10:02:32;20.20;90.20
37285;DHT22;23172;53.550;9.964;2022-10-29T10:07:37;20.20;90.20
37285;DHT22;23172;53.550;9.964;2022-10-29T10:12:46;20.20;90.00
37285;DHT22;23172;53.550;9.964;2022-10-29T10:17:57;20.30;90.00
37285;DHT22;23172;53.550;9.964;2022-10-29T10:23:00;20.30;90.00
37285;DHT22;23172;53.550;9.964;2022-10-29T10:28:12;20.50;89.60
37285;DHT22;23172;53.550;9.964;2022-10-29T10:33:24;20.60;89.10
37285;DHT22;23172;53.550;9.964;2022-10-29T10:38:27;20.70;88.50
37285;DHT22;23172;53.550;9.964;2022-10-29T10:43:29;20.60;88.40
37285;DHT22;23172;53.550;9.964;2022-10-29T10:48:31;20.70;88.30
37285;DHT22;23172;53.550;9.964;2022-10-29T10:53:37;20.70;88.60
37285;DHT22;23172;53.550;9.964;2022-10-29T10:58:41;20.70;88.90
37285;DHT22;23172;53.550;9.964;2022-10-29T11:03:48;20.70;88.80
37285;DHT22;23172;53.550;9.964;2022-10-29T11:08:59;20.80;88.60
37285;DHT22;23172;53.550;9.964;2022-10-29T11:14:12;20.80;88.80
37285;DHT22;23172;53.550;9.964;2022-10-29T11:19:22;21.00;88.60
37285;DHT22;23172;53.550;9.964;2022-10-29T11:24:32;21.00;88.40
37285;DHT22;23172;53.550;9.964;2022-10-29T11:29:42;21.10;88.20
37285;DHT22;23172;53.550;9.964;2022-10-29T11:34:50;21.10;87.60
37285;DHT22;23172;53.550;9.964;2022-10-29T11:40:03;21.20;87.70
37285;DHT22;23172;53.550;9.964;2022-10-29T11:45:10;21.10;87.70
37285;DHT22;23172;53.550;9.964;2022-10-29T11:50:21;21.00;88.90
37285;DHT22;23172;53.550;9.964;2022-10-29T11:55:34;21.10;87.90
37285;DHT22;23172;53.550;9.964;2022-10-29T12:00:52;21.20;87.20
37285;DHT22;23172;53.550;9.964;2022-10-29T12:06:04;21.30;87.00
37285;DHT22;23172;53.550;9.964;2022-10-29T12:11:19;21.30;87.40
37285;DHT22;23172;53.550;9.964;2022-10-29T12:16:30;21.40;87.30
37285;DHT22;23172;53.550;9.964;2022-10-29T12:21:41;21.50;86.60
37285;DHT22;23172;53.550;9.964;2022-10-29T12:26:52;21.50;86.50
37285;DHT22;23172;53.550;9.964;2022-10-29T12:32:05;21.40;86.80
37285;DHT22;23172;53.550;9.964;2022-10-29T12:37:14;21.40;86.50
37285;DHT22;23172;53.550;9.964;2022-10-29T12:42:23;21.40;86.50
37285;DHT22;23172;53.550;9.964;2022-10-29T12:47:31;21.40;86.30
37285;DHT22;23172;53.550;9.964;2022-10-29T12:52:37;21.50;86.10
37285;DHT22;23172;53.550;9.964;2022-10-29T12:57:43;21.60;85.40
37285;DHT22;23172;53.550;9.964;2022-10-29T13:02:45;21.70;84.90
37285;DHT22;23172;53.550;9.964;2022-10-29T13:08:10;21.80;84.30
37285;DHT22;23172;53.550;9.964;2022-10-29T13:18:50;22.00;82.70
37285;DHT22;23172;53.550;9.964;2022-10-29T13:24:02;21.20;85.10
37285;DHT22;23172;53.550;9.964;2022-10-29T13:29:06;20.70;86.60
37285;DHT22;23172;53.550;9.964;2022-10-29T13:34:08;20.50;87.60
37285;DHT22;23172;53.550;9.964;2022-10-29T13:39:17;20.30;88.10
37285;DHT22;23172;53.550;9.964;2022-10-29T13:44:22;20.20;88.70
37285;DHT22;23172;53.550;9.964;2022-10-29T13:49:28;20.10;89.20
37285;DHT22;23172;53.550;9.964;2022-10-29T13:54:36;20.80;87.70
37285;DHT22;23172;53.550;9.964;2022-10-29T13:59:47;21.20;86.50
37285;DHT22;23172;53.550;9.964;2022-10-29T14:04:54;20.70;88.10
37285;DHT22;23172;53.550;9.964;2022-10-29T14:10:02;20.40;89.00
37285;DHT22;23172;53.550;9.964;2022-10-29T14:15:10;20.30;89.30
37285;DHT22;23172;53.550;9.964;2022-10-29T14:20:21;20.30;89.30
37285;DHT22;23172;53.550;9.964;2022-10-29T14:25:29;20.20;89.60
37285;DHT22;23172;53.550;9.964;2022-10-29T14:30:33;20.10;90.00
37285;DHT22;23172;53.550;9.964;2022-10-29T14:35:34;20.10;90.00
37285;DHT22;23172;53.550;9.964;2022-10-29T14:40:36;20.80;88.90
37285;DHT22;23172;53.550;9.964;2022-10-29T14:45:39;21.20;87.70
37285;DHT22;23172;53.550;9.964;2022-10-29T14:50:45;20.70;89.20
37285;DHT22;23172;53.550;9.964;2022-10-29T14:55:48;20.50;90.00
37285;DHT22;23172;53.550;9.964;2022-10-29T15:00:54;20.30;90.40
37285;DHT22;23172;53.550;9.964;2022-10-29T15:06:11;20.10;90.60
37285;DHT22;23172;53.550;9.964;2022-10-29T15:11:34;20.80;90.10
37285;DHT22;23172;53.550;9.964;2022-10-29T15:16:37;21.10;89.30
37285;DHT22;23172;53.550;9.964;2022-10-29T15:21:39;21.30;88.60
37285;DHT22;23172;53.550;9.964;2022-10-29T15:26:44;21.40;87.60
37285;DHT22;23172;53.550;9.964;2022-10-29T15:31:48;21.40;87.80
37285;DHT22;23172;53.550;9.964;2022-10-29T15:36:51;21.40;87.70
37285;DHT22;23172;53.550;9.964;2022-10-29T15:41:54;21.40;87.80
37285;DHT22;23172;53.550;9.964;2022-10-29T15:46:59;21.40;87.90
37285;DHT22;23172;53.550;9.964;2022-10-29T15:52:02;21.30;88.50
37285;DHT22;23172;53.550;9.964;2022-10-29T15:57:04;21.20;89.00
37285;DHT22;23172;53.550;9.964;2022-10-29T16:02:11;21.10;89.50
37285;DHT22;23172;53.550;9.964;2022-10-29T16:07:13;21.10;89.80
37285;DHT22;23172;53.550;9.964;2022-10-29T16:12:16;21.10;89.80
37285;DHT22;23172;53.550;9.964;2022-10-29T16:17:20;21.10;89.80
37285;DHT22;23172;53.550;9.964;2022-10-29T16:22:22;20.30;91.00
37285;DHT22;23172;53.550;9.964;2022-10-29T16:27:26;19.90;91.80
37285;DHT22;23172;53.550;9.964;2022-10-29T16:32:29;19.60;92.20
37285;DHT22;23172;53.550;9.964;2022-10-29T16:37:31;19.50;92.50
37285;DHT22;23172;53.550;9.964;2022-10-29T16:42:33;19.30;92.70
37285;DHT22;23172;53.550;9.964;2022-10-29T16:47:36;19.20;92.80
37285;DHT22;23172;53.550;9.964;2022-10-29T16:52:37;19.10;93.10
37285;DHT22;23172;53.550;9.964;2022-10-29T16:57:39;19.00;93.40
37285;DHT22;23172;53.550;9.964;2022-10-29T17:02:42;18.90;93.50
37285;DHT22;23172;53.550;9.964;2022-10-29T17:07:44;18.90;93.60
37285;DHT22;23172;53.550;9.964;2022-10-29T17:12:46;18.90;93.60
37285;DHT22;23172;53.550;9.964;2022-10-29T17:17:49;18.90;93.80
37285;DHT22;23172;53.550;9.964;2022-10-29T17:22:51;18.80;94.10
37285;DHT22;23172;53.550;9.964;2022-10-29T17:27:52;18.80;94.10
37285;DHT22;23172;53.550;9.964;2022-10-29T17:32:55;18.70;94.20
37285;DHT22;23172;53.550;9.964;2022-10-29T17:37:57;18.70;94.40
37285;DHT22;23172;53.550;9.964;2022-10-29T17:42:59;18.70;94.60
37285;DHT22;23172;53.550;9.964;2022-10-29T17:48:02;18.70;94.90
37285;DHT22;23172;53.550;9.964;2022-10-29T17:53:04;18.60;94.80
37285;DHT22;23172;53.550;9.964;2022-10-29T17:58:05;18.60;94.80
37285;DHT22;23172;53.550;9.964;2022-10-29T18:03:08;18.60;94.80
37285;DHT22;23172;53.550;9.964;2022-10-29T18:08:10;18.60;94.90
37285;DHT22;23172;53.550;9.964;2022-10-29T18:13:11;18.60;95.00
37285;DHT22;23172;53.550;9.964;2022-10-29T18:18:14;18.70;95.10
37285;DHT22;23172;53.550;9.964;2022-10-29T18:23:16;18.70;95.00
37285;DHT22;23172;53.550;9.964;2022-10-29T18:28:17;18.70;95.20
37285;DHT22;23172;53.550;9.964;2022-10-29T18:33:20;18.60;95.30
37285;DHT22;23172;53.550;9.964;2022-10-29T18:38:22;18.60;95.60
37285;DHT22;23172;53.550;9.964;2022-10-29T18:43:26;18.50;95.60
37285;DHT22;23172;53.550;9.964;2022-10-29T18:48:30;18.50;95.70
37285;DHT22;23172;53.550;9.964;2022-10-29T18:53:32;18.40;95.90
37285;DHT22;23172;53.550;9.964;2022-10-29T18:58:34;18.40;95.90
37285;DHT22;23172;53.550;9.964;2022-10-29T19:03:37;18.50;96.10
37285;DHT22;23172;53.550;9.964;2022-10-29T19:08:40;18.40;96.20
37285;DHT22;23172;53.550;9.964;2022-10-29T19:13:42;18.40;96.30
37285;DHT22;23172;53.550;9.964;2022-10-29T19:18:45;18.40;96.60
37285;DHT22;23172;53.550;9.964;2022-10-29T19:23:47;18.40;96.40
37285;DHT22;23172;53.550;9.964;2022-10-29T19:28:48;18.40;96.40
37285;DHT22;23172;53.550;9.964;2022-10-29T19:33:52;18.50;96.50
37285;DHT22;23172;53.550;9.964;2022-10-29T19:38:54;18.40;96.70
37285;DHT22;23172;53.550;9.964;2022-10-29T19:43:57;18.40;96.60
37285;DHT22;23172;53.550;9.964;2022-10-29T19:49:00;18.50;96.70
37285;DHT22;23172;53.550;9.964;2022-10-29T19:54:02;18.40;96.70
37285;DHT22;23172;53.550;9.964;2022-10-29T19:59:04;18.40;96.80
37285;DHT22;23172;53.550;9.964;2022-10-29T20:04:07;18.40;97.00
37285;DHT22;23172;53.550;9.964;2022-10-29T20:09:09;18.30;97.10
37285;DHT22;23172;53.550;9.964;2022-10-29T20:14:10;18.20;97.40
37285;DHT22;23172;53.550;9.964;2022-10-29T20:19:13;18.30;97.40
37285;DHT22;23172;53.550;9.964;2022-10-29T20:24:15;18.30;97.30
37285;DHT22;23172;53.550;9.964;2022-10-29T20:29:16;18.40;97.20
37285;DHT22;23172;53.550;9.964;2022-10-29T20:34:19;18.30;97.30
37285;DHT22;23172;53.550;9.964;2022-10-29T20:39:21;18.30;97.50
37285;DHT22;23172;53.550;9.964;2022-10-29T20:44:23;18.20;97.70
37285;DHT22;23172;53.550;9.964;2022-10-29T20:49:26;18.20;97.80
37285;DHT22;23172;53.550;9.964;2022-10-29T20:54:27;18.20;97.90
37285;DHT22;23172;53.550;9.964;2022-10-29T20:59:29;18.20;97.80
37285;DHT22;23172;53.550;9.964;2022-10-29T21:04:32;18.20;97.90
37285;DHT22;23172;53.550;9.964;2022-10-29T21:09:34;18.20;97.90
37285;DHT22;23172;53.550;9.964;2022-10-29T21:14:35;18.10;98.10
37285;DHT22;23172;53.550;9.964;2022-10-29T21:19:38;18.10;98.20
37285;DHT22;23172;53.550;9.964;2022-10-29T21:24:40;18.10;98.20
37285;DHT22;23172;53.550;9.964;2022-10-29T21:29:42;18.10;98.30
37285;DHT22;23172;53.550;9.964;2022-10-29T21:34:45;18.10;98.30
37285;DHT22;23172;53.550;9.964;2022-10-29T21:39:46;18.10;98.30
37285;DHT22;23172;53.550;9.964;2022-10-29T21:44:48;18.10;98.40
37285;DHT22;23172;53.550;9.964;2022-10-29T21:49:51;18.00;98.40
37285;DHT22;23172;53.550;9.964;2022-10-29T21:54:52;18.00;98.50
37285;DHT22;23172;53.550;9.964;2022-10-29T21:59:54;18.00;98.60
37285;DHT22;23172;53.550;9.964;2022-10-29T22:04:57;17.90;99.00
37285;DHT22;23172;53.550;9.964;2022-10-29T22:09:58;17.80;98.90
37285;DHT22;23172;53.550;9.964;2022-10-29T22:15:00;17.70;99.20
37285;DHT22;23172;53.550;9.964;2022-10-29T22:20:05;17.60;99.40
37285;DHT22;23172;53.550;9.964;2022-10-29T22:25:07;17.60;99.40
37285;DHT22;23172;53.550;9.964;2022-10-29T22:30:09;17.60;99.20
37285;DHT22;23172;53.550;9.964;2022-10-29T22:35:12;17.60;99.40
37285;DHT22;23172;53.550;9.964;2022-10-29T22:40:13;17.50;99.40
37285;DHT22;23172;53.550;9.964;2022-10-29T22:45:15;17.40;99.60
37285;DHT22;23172;53.550;9.964;2022-10-29T22:50:18;17.40;99.60
37285;DHT22;23172;53.550;9.964;2022-10-29T22:55:20;17.40;99.70
37285;DHT22;23172;53.550;9.964;2022-10-29T23:00:22;17.40;99.60
37285;DHT22;23172;53.550;9.964;2022-10-29T23:05:24;17.40;99.70
37285;DHT22;23172;53.550;9.964;2022-10-29T23:10:26;17.40;99.60
37285;DHT22;23172;53.550;9.964;2022-10-29T23:15:28;17.40;99.90
37285;DHT22;23172;53.550;9.964;2022-10-29T23:20:31;17.30;99.60
37285;DHT22;23172;53.550;9.964;2022-10-29T23:25:32;17.20;99.80
37285;DHT22;23172;53.550;9.964;2022-10-29T23:30:34;17.20;99.90
37285;DHT22;23172;53.550;9.964;2022-10-29T23:35:37;17.20;99.90
37285;DHT22;23172;53.550;9.964;2022-10-29T23:40:38;17.20;99.90
37285;DHT22;23172;53.550;9.964;2022-10-29T23:45:40;17.20;99.90
37285;DHT22;23172;53.550;9.964;2022-10-29T23:50:43;17.20;99.90
37285;DHT22;23172;53.550;9.964;2022-10-29T23:55:45;17.20;99.80
